Terminal Aerodrome Forecast
Issued by NWS

Home | Current Version | Previous Version | Graphics & Text | Print | Product List | Glossary On
Versions: 1 2 3 4 5 6 7 8 9 10 11 12 13 14
813
FTUS43 KOAX 300522
TAFCDR
TAF
KCDR 300522Z 3006/0106 05010KT P6SM -RA FEW008 BKN018
     FM301500 02015KT P6SM -RASN OVC010
     FM301900 03015KT P6SM -RA OVC015=

USA.gov is the U.S. government's official web portal to all federal, state and local government web resources and services.